createdAt,value
2017-12-26T00:00:49.180Z,980.85
2017-12-26T00:01:56.077Z,980.77
2017-12-26T00:03:02.830Z,980.78
2017-12-26T00:04:09.572Z,980.71
2017-12-26T00:05:16.306Z,980.84
2017-12-26T00:06:23.000Z,980.82
2017-12-26T00:07:29.700Z,980.77
2017-12-26T00:08:36.524Z,980.77
2017-12-26T00:09:43.213Z,980.77
2017-12-26T00:10:49.922Z,980.80
2017-12-26T00:11:56.613Z,980.77
2017-12-26T00:13:03.301Z,980.80
2017-12-26T00:14:10.013Z,980.80
2017-12-26T00:15:16.717Z,980.74
2017-12-26T00:16:23.387Z,980.69
2017-12-26T00:17:30.073Z,980.75
2017-12-26T00:18:36.753Z,980.73
2017-12-26T00:19:43.608Z,980.58
2017-12-26T00:20:50.315Z,980.66
2017-12-26T00:21:56.996Z,980.57
2017-12-26T00:23:03.692Z,980.48
2017-12-26T00:24:10.409Z,980.43
2017-12-26T00:25:17.116Z,980.38
2017-12-26T00:26:23.789Z,980.43
2017-12-26T00:27:30.496Z,980.37
2017-12-26T00:28:37.302Z,980.31
2017-12-26T00:29:44.024Z,980.38
2017-12-26T00:30:55.932Z,980.27
2017-12-26T00:31:57.745Z,980.25
2017-12-26T00:33:04.432Z,980.18
2017-12-26T00:34:11.156Z,980.17
2017-12-26T00:35:17.880Z,980.21
2017-12-26T00:36:24.624Z,980.15
2017-12-26T00:37:31.317Z,980.13
2017-12-26T00:38:37.996Z,980.16
2017-12-26T00:39:45.168Z,980.15
2017-12-26T00:40:51.865Z,980.06
2017-12-26T00:41:58.737Z,980.01
2017-12-26T00:43:05.464Z,980.08
2017-12-26T00:44:12.163Z,979.99
2017-12-26T00:45:18.941Z,979.99
2017-12-26T00:46:25.639Z,979.97
2017-12-26T00:47:32.440Z,979.91
2017-12-26T00:48:39.128Z,979.90
2017-12-26T00:49:45.820Z,979.94
2017-12-26T00:50:52.541Z,979.92
2017-12-26T00:51:59.220Z,979.91
2017-12-26T00:53:05.916Z,979.77
2017-12-26T00:54:12.592Z,979.76
2017-12-26T00:55:19.285Z,979.80
2017-12-26T00:56:26.006Z,979.65
2017-12-26T00:57:32.680Z,979.74
2017-12-26T00:58:39.484Z,979.69
2017-12-26T00:59:46.224Z,979.59
2017-12-26T01:00:52.981Z,979.62
2017-12-26T01:01:59.709Z,979.63
2017-12-26T01:03:06.465Z,979.56
2017-12-26T01:04:13.265Z,979.54
2017-12-26T01:05:19.994Z,979.56
2017-12-26T01:06:26.778Z,979.52
2017-12-26T01:07:33.529Z,979.53
2017-12-26T01:08:40.377Z,979.51
2017-12-26T01:09:47.196Z,979.52
2017-12-26T01:10:53.974Z,979.43
2017-12-26T01:12:00.702Z,979.52
2017-12-26T01:13:07.504Z,979.49
2017-12-26T01:14:14.229Z,979.50
2017-12-26T01:15:20.988Z,979.55
2017-12-26T01:16:27.745Z,979.42
2017-12-26T01:17:34.491Z,979.47
2017-12-26T01:18:41.281Z,979.46
2017-12-26T01:19:48.018Z,979.44
2017-12-26T01:20:54.772Z,979.48
2017-12-26T01:22:01.580Z,979.54
2017-12-26T01:23:08.377Z,979.36
2017-12-26T01:24:15.116Z,979.37
2017-12-26T01:25:21.851Z,979.41
2017-12-26T01:26:28.628Z,979.41
2017-12-26T01:27:35.564Z,979.36
2017-12-26T01:28:42.317Z,979.39
2017-12-26T01:29:49.080Z,979.45
2017-12-26T01:30:55.927Z,979.28
2017-12-26T01:32:02.672Z,979.37
2017-12-26T01:33:09.448Z,979.36
2017-12-26T01:34:16.193Z,979.28
2017-12-26T01:35:22.987Z,979.27
2017-12-26T01:36:29.743Z,979.30
2017-12-26T01:37:36.485Z,979.27
2017-12-26T01:38:43.228Z,979.26
2017-12-26T01:39:50.042Z,979.23
2017-12-26T01:40:56.780Z,979.28
2017-12-26T01:42:03.553Z,979.19
2017-12-26T01:43:10.304Z,979.16
2017-12-26T01:44:17.105Z,979.13
2017-12-26T01:45:23.932Z,979.20
2017-12-26T01:46:30.681Z,979.20
2017-12-26T01:47:37.555Z,979.17
2017-12-26T01:48:44.288Z,979.20
2017-12-26T01:49:51.034Z,979.16
2017-12-26T01:50:57.775Z,979.11
2017-12-26T01:52:04.613Z,979.25
2017-12-26T01:53:11.368Z,979.09
2017-12-26T01:54:18.151Z,979.12
2017-12-26T01:55:24.901Z,979.19
2017-12-26T01:56:31.694Z,979.16
2017-12-26T01:57:38.517Z,979.07
2017-12-26T01:58:45.260Z,979.13
2017-12-26T01:59:51.990Z,979.04
2017-12-26T02:00:58.765Z,979.08
2017-12-26T02:02:05.489Z,978.99
2017-12-26T02:03:12.269Z,978.99
2017-12-26T02:04:19.000Z,978.92
2017-12-26T02:05:25.840Z,978.94
2017-12-26T02:06:32.609Z,978.87
2017-12-26T02:07:39.376Z,978.89
2017-12-26T02:08:46.128Z,978.91
2017-12-26T02:09:52.904Z,978.81
2017-12-26T02:10:59.664Z,978.82
2017-12-26T02:12:06.525Z,978.82
2017-12-26T02:13:13.403Z,978.74
2017-12-26T02:14:20.137Z,978.75
2017-12-26T02:15:26.905Z,978.76
2017-12-26T02:16:33.632Z,978.66
2017-12-26T02:17:40.423Z,978.65
2017-12-26T02:18:47.200Z,978.68
2017-12-26T02:19:53.937Z,978.63
2017-12-26T02:21:00.693Z,978.59
2017-12-26T02:22:07.497Z,978.55
2017-12-26T02:23:14.253Z,978.50
2017-12-26T02:24:21.058Z,978.50
2017-12-26T02:25:27.786Z,978.54
2017-12-26T02:26:34.576Z,978.49
2017-12-26T02:27:41.330Z,978.48
2017-12-26T02:28:48.105Z,978.42
2017-12-26T02:29:54.868Z,978.41
2017-12-26T02:31:01.760Z,978.49
2017-12-26T02:32:08.479Z,978.40
2017-12-26T02:33:15.325Z,978.37
2017-12-26T02:34:22.116Z,978.38
2017-12-26T02:35:28.869Z,978.25
2017-12-26T02:36:35.609Z,978.34
2017-12-26T02:37:42.340Z,978.29
2017-12-26T02:38:49.202Z,978.33
2017-12-26T02:39:56.022Z,978.25
2017-12-26T02:41:02.764Z,978.23
2017-12-26T02:42:09.515Z,978.20
2017-12-26T02:43:16.298Z,978.27
2017-12-26T02:44:23.068Z,978.19
2017-12-26T02:45:29.834Z,978.20
2017-12-26T02:46:36.556Z,978.17
2017-12-26T02:47:43.396Z,978.10
2017-12-26T02:48:50.164Z,978.11
2017-12-26T02:49:56.919Z,978.08
2017-12-26T02:51:03.681Z,978.01
2017-12-26T02:52:10.505Z,977.95
2017-12-26T02:53:17.220Z,977.97
2017-12-26T02:54:24.011Z,977.87
2017-12-26T02:55:30.742Z,977.99
2017-12-26T02:56:37.500Z,977.96
2017-12-26T02:57:44.360Z,977.87
2017-12-26T02:58:51.129Z,977.86
2017-12-26T02:59:57.912Z,977.81
2017-12-26T03:01:04.725Z,977.72
2017-12-26T03:02:11.487Z,977.69
2017-12-26T03:03:18.228Z,977.69
2017-12-26T03:04:24.966Z,977.66
2017-12-26T03:05:31.737Z,977.65
2017-12-26T03:06:38.497Z,977.64
2017-12-26T03:07:45.250Z,977.59
2017-12-26T03:08:52.010Z,977.58
2017-12-26T03:09:58.845Z,977.66
2017-12-26T03:11:05.629Z,977.52
2017-12-26T03:12:12.388Z,977.51
2017-12-26T03:13:19.113Z,977.45
2017-12-26T03:14:25.868Z,977.44
2017-12-26T03:15:32.727Z,977.41
2017-12-26T03:16:39.487Z,977.36
2017-12-26T03:17:46.257Z,977.32
2017-12-26T03:18:53.098Z,977.24
2017-12-26T03:19:59.821Z,977.26
2017-12-26T03:21:06.600Z,977.14
2017-12-26T03:22:13.337Z,977.23
2017-12-26T03:22:31.828Z,977.19
2017-12-26T03:23:38.536Z,977.21
2017-12-26T03:24:45.378Z,977.17
2017-12-26T03:25:52.157Z,977.19
2017-12-26T03:26:58.928Z,977.17
2017-12-26T03:28:05.811Z,977.11
2017-12-26T03:29:12.605Z,977.10
2017-12-26T03:30:19.353Z,977.11
2017-12-26T03:31:26.118Z,977.07
2017-12-26T03:32:33.017Z,977.00
2017-12-26T03:33:39.756Z,977.03
2017-12-26T03:34:46.531Z,976.98
2017-12-26T03:35:53.399Z,976.92
2017-12-26T03:37:00.148Z,976.89
2017-12-26T03:38:06.920Z,976.89
2017-12-26T03:39:13.669Z,976.83
2017-12-26T03:40:20.513Z,976.86
2017-12-26T03:41:27.288Z,976.82
2017-12-26T03:42:34.041Z,976.79
2017-12-26T03:43:40.784Z,976.76
2017-12-26T03:44:47.612Z,976.73
2017-12-26T03:45:54.340Z,976.69
2017-12-26T03:47:01.156Z,976.64
2017-12-26T03:48:07.984Z,976.69
2017-12-26T03:49:14.749Z,976.62
2017-12-26T03:50:21.473Z,976.70
2017-12-26T03:51:28.226Z,976.65
2017-12-26T03:52:35.015Z,976.58
2017-12-26T03:53:41.873Z,976.46
2017-12-26T03:54:48.645Z,976.47
2017-12-26T03:55:55.407Z,976.41
2017-12-26T03:57:02.133Z,976.41
2017-12-26T03:58:08.999Z,976.40
2017-12-26T03:59:15.765Z,976.29
2017-12-26T04:00:22.499Z,976.30
2017-12-26T04:01:29.270Z,976.35
2017-12-26T04:02:36.126Z,976.37
2017-12-26T04:03:42.891Z,976.34
2017-12-26T04:04:49.662Z,976.28
2017-12-26T04:05:56.406Z,976.26
2017-12-26T04:07:03.210Z,976.32
2017-12-26T04:08:09.980Z,976.28
2017-12-26T04:09:16.740Z,976.23
2017-12-26T04:10:23.700Z,976.26
2017-12-26T04:11:30.496Z,976.18
2017-12-26T04:12:37.277Z,976.20
2017-12-26T04:13:44.020Z,976.13
2017-12-26T04:14:50.802Z,976.15
2017-12-26T04:15:57.567Z,976.18
2017-12-26T04:17:04.340Z,976.13
2017-12-26T04:18:11.095Z,976.03
2017-12-26T04:19:17.900Z,976.05
2017-12-26T04:20:24.650Z,976.12
2017-12-26T04:21:31.436Z,976.06
2017-12-26T04:22:38.168Z,976.04
2017-12-26T04:23:45.054Z,975.94
2017-12-26T04:24:51.837Z,975.93
2017-12-26T04:25:58.593Z,975.97
2017-12-26T04:27:05.318Z,975.77
2017-12-26T04:28:12.162Z,975.81
2017-12-26T04:29:18.930Z,975.67
2017-12-26T04:30:25.682Z,975.79
2017-12-26T04:31:32.420Z,975.71
2017-12-26T04:32:39.270Z,975.65
2017-12-26T04:33:46.053Z,975.59
2017-12-26T04:34:52.871Z,975.62
2017-12-26T04:35:59.725Z,975.52
2017-12-26T04:37:06.461Z,975.56
2017-12-26T04:38:13.237Z,975.55
2017-12-26T04:39:19.989Z,975.55
2017-12-26T04:40:26.815Z,975.57
2017-12-26T04:41:33.701Z,975.45
2017-12-26T04:42:40.605Z,975.50
2017-12-26T04:43:47.353Z,975.51
2017-12-26T04:44:54.137Z,975.44
2017-12-26T04:46:00.853Z,975.41
2017-12-26T04:47:07.719Z,975.42
2017-12-26T04:48:14.500Z,975.38
2017-12-26T04:49:21.272Z,975.28
2017-12-26T04:50:28.014Z,975.30
2017-12-26T04:51:34.845Z,975.21
2017-12-26T04:52:41.604Z,975.28
2017-12-26T04:53:48.397Z,975.28
2017-12-26T04:54:55.208Z,975.23
2017-12-26T04:56:01.949Z,975.24
2017-12-26T04:57:08.817Z,975.24
2017-12-26T04:58:15.584Z,975.23
2017-12-26T04:59:22.405Z,975.22
2017-12-26T05:00:29.201Z,975.11
2017-12-26T05:01:35.945Z,975.13
2017-12-26T05:02:42.708Z,975.08
2017-12-26T05:03:49.492Z,975.10
2017-12-26T05:04:56.279Z,975.05
2017-12-26T05:06:03.042Z,975.01
2017-12-26T05:07:09.813Z,975.03
2017-12-26T05:08:16.606Z,974.99
2017-12-26T05:09:23.377Z,974.97
2017-12-26T05:10:30.104Z,974.95
2017-12-26T05:11:36.898Z,974.95
2017-12-26T05:12:43.706Z,974.96
2017-12-26T05:13:50.460Z,974.95
2017-12-26T05:14:57.228Z,974.96
2017-12-26T05:16:04.023Z,974.93
2017-12-26T05:17:10.800Z,974.94
2017-12-26T05:18:17.560Z,974.88
2017-12-26T05:19:24.324Z,974.87
2017-12-26T05:20:31.068Z,974.86
2017-12-26T05:21:37.905Z,974.82
2017-12-26T05:22:44.661Z,974.77
2017-12-26T05:23:51.416Z,974.72
2017-12-26T05:24:58.136Z,974.76
2017-12-26T05:26:04.994Z,974.67
2017-12-26T05:27:11.772Z,974.62
2017-12-26T05:28:18.513Z,974.66
2017-12-26T05:29:25.270Z,974.66
2017-12-26T05:30:32.105Z,974.55
2017-12-26T05:31:38.873Z,974.60
2017-12-26T05:32:45.633Z,974.49
2017-12-26T05:33:52.349Z,974.49
2017-12-26T05:34:59.073Z,974.47
2017-12-26T05:36:05.869Z,974.40
2017-12-26T05:37:12.728Z,974.37
2017-12-26T05:38:19.588Z,974.36
2017-12-26T05:39:26.343Z,974.33
2017-12-26T05:40:33.105Z,974.38
2017-12-26T05:41:39.877Z,974.31
2017-12-26T05:42:46.633Z,974.20
2017-12-26T05:43:53.451Z,974.18
2017-12-26T05:45:00.220Z,974.24
2017-12-26T05:46:06.949Z,974.18
2017-12-26T05:47:13.729Z,974.18
2017-12-26T05:48:20.589Z,974.12
2017-12-26T05:49:27.329Z,974.10
2017-12-26T05:50:34.079Z,974.05
2017-12-26T05:51:40.800Z,974.04
2017-12-26T05:52:47.672Z,974.02
2017-12-26T05:53:54.429Z,974.11
2017-12-26T05:55:01.275Z,974.03
2017-12-26T05:56:08.108Z,973.99
2017-12-26T05:57:14.856Z,973.88
2017-12-26T05:58:21.610Z,974.02
2017-12-26T05:59:28.366Z,973.92
2017-12-26T06:00:35.327Z,973.95
2017-12-26T06:01:42.148Z,973.93
2017-12-26T06:02:49.064Z,973.95
2017-12-26T06:03:55.799Z,973.98
2017-12-26T06:05:02.552Z,973.92
2017-12-26T06:06:09.501Z,973.98
2017-12-26T06:07:16.215Z,974.04
2017-12-26T06:08:22.969Z,974.02
2017-12-26T06:09:29.722Z,973.94
2017-12-26T06:10:36.453Z,974.01
2017-12-26T06:11:43.276Z,974.03
2017-12-26T06:12:50.174Z,974.14
2017-12-26T06:13:57.129Z,974.21
2017-12-26T06:15:03.909Z,974.18
2017-12-26T06:16:10.664Z,974.23
2017-12-26T06:17:17.531Z,974.17
2017-12-26T06:18:24.296Z,974.19
2017-12-26T06:19:31.065Z,974.06
2017-12-26T06:20:37.801Z,974.13
2017-12-26T06:21:44.671Z,974.07
2017-12-26T06:22:51.529Z,974.06
2017-12-26T06:23:58.261Z,974.07
2017-12-26T06:25:05.169Z,974.21
2017-12-26T06:26:11.924Z,974.23
2017-12-26T06:27:18.717Z,974.08
2017-12-26T06:28:25.509Z,974.24
2017-12-26T06:29:32.306Z,974.20
2017-12-26T06:30:39.318Z,974.25
2017-12-26T06:31:46.061Z,974.17
2017-12-26T06:32:52.831Z,974.18
2017-12-26T06:33:59.553Z,974.11
2017-12-26T06:35:06.408Z,974.13
2017-12-26T06:36:13.165Z,974.15
2017-12-26T06:37:19.905Z,974.13
2017-12-26T06:38:26.664Z,974.18
2017-12-26T06:39:33.627Z,974.11
2017-12-26T06:40:40.393Z,974.12
2017-12-26T06:41:47.137Z,974.08
2017-12-26T06:42:53.998Z,974.10
2017-12-26T06:44:00.738Z,974.14
2017-12-26T06:45:07.615Z,974.06
2017-12-26T06:46:14.472Z,974.16
2017-12-26T06:47:21.265Z,974.08
2017-12-26T06:48:28.160Z,974.15
2017-12-26T06:49:34.920Z,974.18
2017-12-26T06:50:41.701Z,974.12
2017-12-26T06:51:48.461Z,974.00
2017-12-26T06:52:55.260Z,974.09
2017-12-26T06:54:02.029Z,974.03
2017-12-26T06:55:08.818Z,974.02
2017-12-26T06:56:15.732Z,973.94
2017-12-26T06:57:22.575Z,974.08
2017-12-26T06:58:29.477Z,974.11
2017-12-26T06:59:37.610Z,973.91
2017-12-26T07:00:43.424Z,974.04
2017-12-26T07:01:50.191Z,973.89
2017-12-26T07:02:56.983Z,973.90
2017-12-26T07:04:03.804Z,973.91
2017-12-26T07:05:10.581Z,973.78
2017-12-26T07:06:17.368Z,973.81
2017-12-26T07:07:24.267Z,973.87
2017-12-26T07:08:31.021Z,973.68
2017-12-26T07:09:37.794Z,973.77
2017-12-26T07:10:44.717Z,973.71
2017-12-26T07:11:51.565Z,973.70
2017-12-26T07:12:58.500Z,973.63
2017-12-26T07:14:05.262Z,973.58
2017-12-26T07:15:12.124Z,973.62
2017-12-26T07:16:18.977Z,973.59
2017-12-26T07:17:25.758Z,973.62
2017-12-26T07:18:32.547Z,973.52
2017-12-26T07:19:39.433Z,973.64
2017-12-26T07:20:46.148Z,973.59
2017-12-26T07:21:53.017Z,973.61
2017-12-26T07:22:59.739Z,973.56
2017-12-26T07:24:06.397Z,973.64
2017-12-26T07:25:13.209Z,973.54
2017-12-26T07:26:19.974Z,973.54
2017-12-26T07:27:26.778Z,973.54
2017-12-26T07:28:33.668Z,973.62
2017-12-26T07:29:40.436Z,973.55
2017-12-26T07:30:47.184Z,973.48
2017-12-26T07:31:54.004Z,973.51
2017-12-26T07:33:00.813Z,973.63
2017-12-26T07:34:07.612Z,973.47
2017-12-26T07:35:14.428Z,973.45
2017-12-26T07:36:21.276Z,973.51
2017-12-26T07:37:28.037Z,973.44
2017-12-26T07:38:34.838Z,973.48
2017-12-26T07:39:41.787Z,973.53
2017-12-26T07:40:48.593Z,973.45
2017-12-26T07:41:55.376Z,973.49
2017-12-26T07:43:02.240Z,973.55
2017-12-26T07:44:09.091Z,973.51
2017-12-26T07:45:15.858Z,973.52
2017-12-26T07:46:22.727Z,973.57
2017-12-26T07:47:29.597Z,973.43
2017-12-26T07:48:36.538Z,973.49
2017-12-26T07:49:43.353Z,973.56
2017-12-26T07:50:50.231Z,973.57
2017-12-26T07:51:57.084Z,973.58
2017-12-26T07:53:04.028Z,973.58
2017-12-26T07:54:10.882Z,973.52
2017-12-26T07:55:17.732Z,973.60
2017-12-26T07:56:25.649Z,973.65
2017-12-26T07:57:31.501Z,973.71
2017-12-26T07:58:38.425Z,973.62
2017-12-26T07:59:45.407Z,973.73
2017-12-26T08:00:52.548Z,973.80
2017-12-26T08:01:58.943Z,973.75
2017-12-26T08:03:05.919Z,973.74
2017-12-26T08:04:13.077Z,973.85
2017-12-26T08:05:19.776Z,973.73
2017-12-26T08:06:26.400Z,973.79
2017-12-26T08:07:33.049Z,973.86
2017-12-26T08:08:39.950Z,973.86
2017-12-26T08:09:46.860Z,973.87
2017-12-26T08:10:53.914Z,973.84
2017-12-26T08:12:00.782Z,973.96
2017-12-26T08:13:07.620Z,973.88
2017-12-26T08:14:14.585Z,974.04
2017-12-26T08:15:21.525Z,974.02
2017-12-26T08:16:28.414Z,974.05
2017-12-26T08:17:35.512Z,973.97
2017-12-26T08:18:42.407Z,973.97
2017-12-26T08:19:49.296Z,974.05
2017-12-26T08:20:56.156Z,974.14
2017-12-26T08:22:03.151Z,974.13
2017-12-26T08:23:10.122Z,974.08
2017-12-26T08:24:17.038Z,974.09
2017-12-26T08:25:23.856Z,974.15
2017-12-26T08:26:30.854Z,974.12
2017-12-26T08:27:38.682Z,974.16
2017-12-26T08:28:44.837Z,974.16
2017-12-26T08:29:52.394Z,974.18
2017-12-26T08:30:58.796Z,974.13
2017-12-26T08:32:06.528Z,974.05
2017-12-26T08:33:12.665Z,974.11
2017-12-26T08:34:19.798Z,974.18
2017-12-26T08:35:26.981Z,974.11
2017-12-26T08:36:33.703Z,974.11
2017-12-26T08:37:40.574Z,974.07
2017-12-26T08:38:47.175Z,974.10
2017-12-26T08:39:54.402Z,974.14
2017-12-26T08:41:07.477Z,974.13
2017-12-26T08:42:09.240Z,974.22
2017-12-26T08:43:15.699Z,974.14
2017-12-26T08:48:23.195Z,974.23
2017-12-26T08:49:28.097Z,974.39
2017-12-26T08:50:35.267Z,974.22
2017-12-26T08:51:42.018Z,974.39
2017-12-26T08:55:02.969Z,974.39
2017-12-26T08:56:10.066Z,974.41
2017-12-26T08:57:16.457Z,974.44
2017-12-26T08:58:31.801Z,974.44
2017-12-26T08:59:31.133Z,974.40
2017-12-26T09:00:37.469Z,974.42
2017-12-26T09:01:43.923Z,974.44
2017-12-26T09:02:50.806Z,974.52
2017-12-26T09:03:58.125Z,974.50
2017-12-26T09:05:04.810Z,974.59
2017-12-26T09:06:11.861Z,974.59
2017-12-26T09:07:18.831Z,974.56
2017-12-26T09:08:25.900Z,974.51
2017-12-26T09:09:32.730Z,974.60
2017-12-26T09:10:39.540Z,974.59
2017-12-26T09:11:46.311Z,974.58
2017-12-26T09:12:53.066Z,974.65
2017-12-26T09:13:59.860Z,974.52
2017-12-26T09:15:06.749Z,974.58
2017-12-26T09:16:13.676Z,974.64
2017-12-26T09:17:20.474Z,974.59
2017-12-26T09:18:27.249Z,974.68
2017-12-26T09:19:34.031Z,974.72
2017-12-26T09:21:47.964Z,974.81
2017-12-26T09:22:54.889Z,974.85
2017-12-26T09:24:01.826Z,974.83
2017-12-26T09:25:08.705Z,974.81
2017-12-26T09:26:15.714Z,974.89
2017-12-26T09:27:22.732Z,974.96
2017-12-26T09:28:29.450Z,974.89
2017-12-26T09:29:36.454Z,975.02
2017-12-26T09:30:43.147Z,974.99
2017-12-26T09:31:50.089Z,975.05
2017-12-26T09:32:56.928Z,975.07
2017-12-26T09:34:03.848Z,975.12
2017-12-26T09:35:10.834Z,975.10
2017-12-26T09:36:18.838Z,975.14
2017-12-26T09:37:24.978Z,975.17
2017-12-26T09:38:31.812Z,975.21
2017-12-26T09:39:38.766Z,975.13
2017-12-26T09:40:45.933Z,975.14
2017-12-26T09:41:52.784Z,975.05
2017-12-26T09:42:59.703Z,975.13
2017-12-26T09:44:06.516Z,975.33
2017-12-26T09:45:13.365Z,975.40
2017-12-26T09:46:20.306Z,975.42
2017-12-26T09:47:27.149Z,975.47
2017-12-26T09:48:33.949Z,975.50
2017-12-26T09:49:40.776Z,975.49
2017-12-26T09:50:47.598Z,975.50
2017-12-26T09:51:54.457Z,975.53
2017-12-26T09:53:01.376Z,975.61
2017-12-26T09:54:08.216Z,975.62
2017-12-26T09:55:15.038Z,975.65
2017-12-26T09:56:21.971Z,975.63
2017-12-26T09:57:29.898Z,975.67
2017-12-26T09:58:36.000Z,975.76
2017-12-26T09:59:42.863Z,975.85
2017-12-26T10:00:49.769Z,975.80
2017-12-26T10:01:56.621Z,975.81
2017-12-26T10:03:03.473Z,975.79
2017-12-26T10:04:10.289Z,975.91
2017-12-26T10:05:17.264Z,975.90
2017-12-26T10:06:24.025Z,975.99
2017-12-26T10:07:31.056Z,975.89
2017-12-26T10:08:37.845Z,975.96
2017-12-26T10:09:44.652Z,975.97
2017-12-26T10:10:51.676Z,975.82
2017-12-26T10:11:58.496Z,975.84
2017-12-26T10:13:05.293Z,975.94
2017-12-26T10:14:12.078Z,975.92
2017-12-26T10:15:18.845Z,975.95
2017-12-26T10:16:25.632Z,975.97
2017-12-26T10:17:32.384Z,975.97
2017-12-26T10:18:39.172Z,975.84
2017-12-26T10:19:45.945Z,975.90
2017-12-26T10:20:52.708Z,975.95
2017-12-26T10:21:59.601Z,976.03
2017-12-26T10:23:06.369Z,975.99
2017-12-26T10:24:13.129Z,976.06
2017-12-26T10:25:19.922Z,976.07
2017-12-26T10:26:26.714Z,976.05
2017-12-26T10:27:33.554Z,976.11
2017-12-26T10:28:40.376Z,976.12
2017-12-26T10:29:47.285Z,976.15
2017-12-26T10:30:54.145Z,976.18
2017-12-26T10:32:00.889Z,976.21
2017-12-26T10:33:07.653Z,976.24
2017-12-26T10:34:14.448Z,976.24
2017-12-26T10:35:21.290Z,976.26
2017-12-26T10:36:28.075Z,976.27
2017-12-26T10:37:34.829Z,976.30
2017-12-26T10:38:41.686Z,976.30
2017-12-26T10:39:48.462Z,976.31
2017-12-26T10:40:55.215Z,976.32
2017-12-26T10:42:01.964Z,976.33
2017-12-26T10:43:08.791Z,976.41
2017-12-26T10:44:15.565Z,976.37
2017-12-26T10:45:22.353Z,976.44
2017-12-26T10:46:29.246Z,976.36
2017-12-26T10:47:35.986Z,976.43
2017-12-26T10:48:42.734Z,976.48
2017-12-26T10:49:49.535Z,976.46
2017-12-26T10:50:56.439Z,976.46
2017-12-26T10:52:03.237Z,976.44
2017-12-26T10:53:10.015Z,976.57
2017-12-26T10:54:16.822Z,976.62
2017-12-26T10:55:23.609Z,976.65
2017-12-26T10:56:30.422Z,976.61
2017-12-26T10:57:37.249Z,976.49
2017-12-26T10:58:44.012Z,976.59
2017-12-26T10:59:50.756Z,976.64
2017-12-26T11:00:57.547Z,976.55
2017-12-26T11:02:04.361Z,976.60
2017-12-26T11:03:11.146Z,976.64
2017-12-26T11:04:18.151Z,976.66
2017-12-26T11:05:24.922Z,976.65
2017-12-26T11:06:31.686Z,976.59
2017-12-26T11:07:38.572Z,976.70
2017-12-26T11:08:45.321Z,976.64
2017-12-26T11:09:52.058Z,976.63
2017-12-26T11:10:58.801Z,976.61
2017-12-26T11:12:05.808Z,976.73
2017-12-26T11:13:12.546Z,976.75
2017-12-26T11:14:19.306Z,976.72
2017-12-26T11:15:26.128Z,976.81
2017-12-26T11:16:32.880Z,976.79
2017-12-26T11:17:39.649Z,976.77
2017-12-26T11:18:46.390Z,976.83
2017-12-26T11:19:53.178Z,976.84
2017-12-26T11:20:59.919Z,976.79
2017-12-26T11:22:06.649Z,976.76
2017-12-26T11:23:13.414Z,976.83
2017-12-26T11:24:20.266Z,976.81
2017-12-26T11:25:27.018Z,976.82
2017-12-26T11:26:33.805Z,976.80
2017-12-26T11:27:40.541Z,976.76
2017-12-26T11:28:47.398Z,976.89
2017-12-26T11:29:54.266Z,976.85
2017-12-26T11:31:00.996Z,977.03
2017-12-26T11:32:07.802Z,976.87
2017-12-26T11:33:14.565Z,976.95
2017-12-26T11:34:21.338Z,976.92
2017-12-26T11:35:28.078Z,976.93
2017-12-26T11:36:34.861Z,976.97
2017-12-26T11:37:41.597Z,976.89
2017-12-26T11:38:48.450Z,976.84
2017-12-26T11:39:55.282Z,976.96
2017-12-26T11:41:02.030Z,976.92
2017-12-26T11:42:08.777Z,976.88
2017-12-26T11:43:15.542Z,977.04
2017-12-26T11:44:22.380Z,977.07
2017-12-26T11:45:29.146Z,976.88
2017-12-26T11:46:35.881Z,976.86
2017-12-26T11:47:42.622Z,976.95
2017-12-26T11:48:49.423Z,976.84
2017-12-26T11:49:56.174Z,976.87
2017-12-26T11:51:02.945Z,977.01
2017-12-26T11:52:09.816Z,976.95
2017-12-26T11:53:16.577Z,976.85
2017-12-26T11:54:23.362Z,976.95
2017-12-26T11:55:30.106Z,976.96
2017-12-26T11:56:36.907Z,976.98
2017-12-26T11:57:43.654Z,976.89
2017-12-26T11:58:50.386Z,976.94
2017-12-26T11:59:57.153Z,976.99
2017-12-26T12:01:03.979Z,976.99
2017-12-26T12:02:10.746Z,976.93
2017-12-26T12:03:17.499Z,976.96
2017-12-26T12:04:24.230Z,976.93
2017-12-26T12:05:31.079Z,976.98
2017-12-26T12:06:37.840Z,976.96
2017-12-26T12:07:44.577Z,977.04
2017-12-26T12:08:51.313Z,977.05
2017-12-26T12:09:58.186Z,977.00
2017-12-26T12:11:04.939Z,977.04
2017-12-26T12:12:11.747Z,977.06
2017-12-26T12:13:18.582Z,977.03
2017-12-26T12:14:26.637Z,977.05
2017-12-26T12:15:32.397Z,977.08
2017-12-26T12:16:39.145Z,977.12
2017-12-26T12:17:45.886Z,977.06
2017-12-26T12:18:52.611Z,977.04
2017-12-26T12:19:59.555Z,977.13
2017-12-26T12:21:06.327Z,977.09
2017-12-26T12:22:13.077Z,977.03
2017-12-26T12:23:19.922Z,977.02
2017-12-26T12:24:26.686Z,977.10
2017-12-26T12:25:33.570Z,977.08
2017-12-26T12:26:40.340Z,977.01
2017-12-26T12:27:47.091Z,977.04
2017-12-26T12:28:53.865Z,977.03
2017-12-26T12:30:00.603Z,976.94
2017-12-26T12:31:07.454Z,976.92
2017-12-26T12:32:14.230Z,976.96
2017-12-26T12:33:21.067Z,976.88
2017-12-26T12:34:27.862Z,976.93
2017-12-26T12:35:34.617Z,977.00
2017-12-26T12:36:41.348Z,976.85
2017-12-26T12:37:48.088Z,976.99
2017-12-26T12:38:54.834Z,976.83
2017-12-26T12:40:01.582Z,976.88
2017-12-26T12:41:08.334Z,976.93
2017-12-26T12:42:15.070Z,976.84
2017-12-26T12:43:21.818Z,976.79
2017-12-26T12:44:28.657Z,976.78
2017-12-26T12:45:35.373Z,976.81
2017-12-26T12:46:42.156Z,976.85
2017-12-26T12:47:48.889Z,976.86
2017-12-26T12:48:55.801Z,976.85
2017-12-26T12:50:02.609Z,976.87
2017-12-26T12:51:09.470Z,976.90
2017-12-26T12:52:16.234Z,976.83
2017-12-26T12:53:23.181Z,976.83
2017-12-26T12:54:29.993Z,976.79
2017-12-26T12:55:36.718Z,976.80
2017-12-26T12:56:43.535Z,976.85
2017-12-26T12:57:50.290Z,976.74
2017-12-26T12:58:57.110Z,976.83
2017-12-26T13:00:03.854Z,976.75
2017-12-26T13:01:10.654Z,976.76
2017-12-26T13:02:17.782Z,976.66
2017-12-26T13:03:24.537Z,976.82
2017-12-26T13:04:31.354Z,976.67
2017-12-26T13:05:38.094Z,976.73
2017-12-26T13:06:44.873Z,976.80
2017-12-26T13:07:51.614Z,976.72
2017-12-26T13:08:58.434Z,976.64
2017-12-26T13:10:05.205Z,976.63
2017-12-26T13:11:11.953Z,976.64
2017-12-26T13:12:18.757Z,976.71
2017-12-26T13:13:25.575Z,976.64
2017-12-26T13:14:32.327Z,976.63
2017-12-26T13:15:39.116Z,976.64
2017-12-26T13:16:45.977Z,976.58
2017-12-26T13:17:52.750Z,976.55
2017-12-26T13:18:59.529Z,976.58
2017-12-26T13:20:06.286Z,976.54
2017-12-26T13:21:13.038Z,976.63
2017-12-26T13:22:19.806Z,976.60
2017-12-26T13:23:26.545Z,976.54
2017-12-26T13:24:33.277Z,976.58
2017-12-26T13:25:40.129Z,976.50
2017-12-26T13:26:46.965Z,976.49
2017-12-26T13:27:53.747Z,976.54
2017-12-26T13:29:00.594Z,976.54
2017-12-26T13:30:07.347Z,976.49
2017-12-26T13:31:14.098Z,976.44
2017-12-26T13:32:20.851Z,976.43
2017-12-26T13:33:27.694Z,976.43
2017-12-26T13:34:35.087Z,976.41
2017-12-26T13:35:41.341Z,976.37
2017-12-26T13:36:48.121Z,976.28
2017-12-26T13:37:54.884Z,976.40
2017-12-26T13:39:01.644Z,976.28
2017-12-26T13:40:08.444Z,976.22
2017-12-26T13:41:15.224Z,976.20
2017-12-26T13:42:21.963Z,976.18
2017-12-26T13:43:28.983Z,976.21
2017-12-26T13:44:35.888Z,976.21
2017-12-26T13:45:42.640Z,976.12
2017-12-26T13:46:49.471Z,976.14
2017-12-26T13:47:56.271Z,976.20
2017-12-26T13:49:03.141Z,976.03
2017-12-26T13:50:11.179Z,976.04
2017-12-26T13:51:16.608Z,976.17
2017-12-26T13:52:23.431Z,976.14
2017-12-26T13:53:30.379Z,976.12
2017-12-26T13:54:37.293Z,976.09
2017-12-26T13:55:43.953Z,976.13
2017-12-26T13:56:50.939Z,976.22
2017-12-26T13:57:57.758Z,976.19
2017-12-26T13:59:04.616Z,976.06
2017-12-26T14:00:11.399Z,976.21